Terminal Aerodrome Forecast
Issued by NWS

Home | Current Version | Previous Version | Text Only | Print | Product List | Glossary On
Versions: 1 2 3 4 5 6 7 8 9 10 11 12 13 14 15 16 17 18
000
FTUS46 KSTO 260500
TAFRBL
TAF
KRBL 260535Z 2606/2706 VRB05KT P6SM VCSH BKN080
     FM261000 VRB05KT P6SM SCT100
     FM261500 35008KT P6SM SKC=

USA.gov is the U.S. government's official web portal to all federal, state and local government web resources and services.